European Seaway — MPDG3 — position and weather

sailwx.info

Track history (hours):
 
Tides and Currents Weather Stations Pressure Air Temp Water Temp Dewpoint Dewpoint Depression Visibility Wind Speed Wind Dir Waves Ship Positions

European Seaway

Operator: P & O Ferries

Last reported at 2018-Feb-22 10:28 UTC. Time now 2018-Feb-22 10:37 UTC.
Position N 51°05' E 001°25'.

Length 179 m; draft 6.1 m.

Type: Passenger vessel. MMSI: 232001040.

Date/timePositionNaut miles runAvg speedWind from/ knotsBaromVisibWave heightAir tempDewpointWater temp
2018-Feb-22 10:28N 51°05' E 001°25'2 1.2
2018-Feb-22 08:55N 51°07' E 001°25'717.8
2018-Feb-22 08:30N 51°04' E 001°36'3 1.2
2018-Feb-22 05:53N 51°02' E 001°31'7 3.3
2018-Feb-22 03:52N 51°07' E 001°24'718.2
2018-Feb-22 03:30N 51°03' E 001°32'3 0.3
2018-Feb-21 15:32N 51°05' E 001°27'217.7
2018-Feb-21 15:25N 51°06' E 001°24'1 0.2
2018-Feb-21 11:01N 51°06' E 001°23'11 0.7
2018-Feb-20 20:29N 50°59' E 001°37'917.6
2018-Feb-20 19:57N 51°05' E 001°25'6 2.8
2018-Feb-20 17:59N 51°03' E 001°33'6 2.2
2018-Feb-20 15:10N 51°06' E 001°24'2 1.9
2018-Feb-20 13:54N 51°07' E 001°22'717.1
2018-Feb-20 13:29N 51°04' E 001°32'14 8.1
2018-Feb-20 11:46N 50°58' E 001°52'1 2.1
2018-Feb-20 11:30N 50°58' E 001°51'916.0
2018-Feb-20 10:57N 50°60' E 001°37'818.1
2018-Feb-20 10:29N 51°05' E 001°27'3 2.0
2018-Feb-20 09:04N 51°07' E 001°23'117.7
2018-Feb-20 09:00N 51°06' E 001°25'11 4.0
2018-Feb-20 06:16N 50°59' E 001°38'518.2
2018-Feb-20 05:58N 51°02' E 001°31'7 3.3
2018-Feb-20 03:47N 51°07' E 001°23'517.3
2018-Feb-20 03:29N 51°05' E 001°31'15 3.1
2018-Feb-19 22:37N 50°58' E 001°52'0 0.0
2018-Feb-19 22:29N 50°58' E 001°52'7 3.3
2018-Feb-19 20:22N 50°58' E 001°41'617.2
2018-Feb-19 20:00N 51°02' E 001°32'9 6.2
2018-Feb-19 18:29N 51°07' E 001°20'816.8
2018-Feb-19 18:00N 51°05' E 001°32'2 0.9
2018-Feb-19 15:28N 51°03' E 001°30'6 4.2
2018-Feb-19 13:56N 51°07' E 001°23'716.4
2018-Feb-19 13:31N 51°05' E 001°34'8 3.5
2018-Feb-19 11:08N 50°58' E 001°42'817.1
2018-Feb-19 10:41N 51°02' E 001°31'316.9
2018-Feb-19 10:30N 51°04' E 001°27'4 2.6
2018-Feb-19 08:51N 51°07' E 001°23'719.0
2018-Feb-19 08:30N 51°03' E 001°32'919.0
2018-Feb-19 08:00N 50°58' E 001°45'4 8.0
2018-Feb-19 07:30N 50°58' E 001°51'0 0.0
2018-Feb-19 07:01N 50°58' E 001°51'0 0.0
2018-Feb-19 06:30N 50°58' E 001°51'6 0.6
2018-Feb-18 20:07N 50°58' E 001°41'216.2
2018-Feb-18 20:00N 50°59' E 001°38'917.6
2018-Feb-18 19:31N 51°04' E 001°27'4 2.7
2018-Feb-18 18:08N 51°07' E 001°23'218.0
2018-Feb-18 18:00N 51°06' E 001°26'1018.2
2018-Feb-18 17:26N 51°00' E 001°39'3 1.4
2018-Feb-18 15:28N 51°01' E 001°35'818.0
2018-Feb-18 15:00N 51°06' E 001°24'2 1.4
2018-Feb-18 13:45N 51°07' E 001°23'416.5
2018-Feb-18 13:29N 51°05' E 001°29'10 4.5
2018-Feb-18 11:10N 50°58' E 001°42'716.5
2018-Feb-18 10:43N 51°02' E 001°31'415.4
2018-Feb-18 10:29N 51°04' E 001°27'4 2.3
2018-Feb-18 08:54N 51°07' E 001°23'718.5
2018-Feb-18 08:30N 51°04' E 001°33'918.7
2018-Feb-18 08:00N 50°58' E 001°45'4 6.9
2018-Feb-18 07:29N 50°58' E 001°51'0 0.0
2018-Feb-18 07:00N 50°58' E 001°51'0 0.0
2018-Feb-18 06:30N 50°58' E 001°51'0 0.0
2018-Feb-18 06:01N 50°58' E 001°51'0 0.0
2018-Feb-18 05:30N 50°58' E 001°51'0 0.0
2018-Feb-18 05:00N 50°58' E 001°51'0 0.0
2018-Feb-18 04:30N 50°58' E 001°51'0 0.0
2018-Feb-18 04:00N 50°58' E 001°51'0 0.0
2018-Feb-18 03:30N 50°58' E 001°51'0 0.0
2018-Feb-18 03:00N 50°58' E 001°51'0 0.0
2018-Feb-18 02:30N 50°58' E 001°51'0 0.0
2018-Feb-18 02:00N 50°58' E 001°51'0 0.0
2018-Feb-18 01:30N 50°58' E 001°51'0 0.0
2018-Feb-18 00:59N 50°58' E 001°51'0 0.0
2018-Feb-18 00:30N 50°58' E 001°51'0 0.0
2018-Feb-18 00:00N 50°58' E 001°51'0 0.0
2018-Feb-17 23:30N 50°58' E 001°51'0 0.0
2018-Feb-17 23:00N 50°58' E 001°51'0 0.0
2018-Feb-17 22:31N 50°58' E 001°51'0 0.0
2018-Feb-17 21:52N 50°58' E 001°51'0 0.0
2018-Feb-17 21:25N 50°58' E 001°51'1 0.7
2018-Feb-17 20:30N 50°58' E 001°50'815.8
2018-Feb-17 19:59N 50°60' E 001°37'917.5
2018-Feb-17 19:29N 51°05' E 001°26'4 8.9
2018-Feb-17 18:59N 51°07' E 001°20'2 2.4
2018-Feb-17 18:16N 51°07' E 001°23'518.0
2018-Feb-17 18:00N 51°06' E 001°30'1517.7
2018-Feb-17 17:11N 50°58' E 001°49'0 0.2
2018-Feb-17 16:02N 50°58' E 001°50'516.7
2018-Feb-17 15:45N 50°59' E 001°42'818.9
2018-Feb-17 15:19N 51°03' E 001°31'619.2
2018-Feb-17 15:00N 51°06' E 001°23'1 0.4
2018-Feb-17 13:44N 51°07' E 001°23'416.4
2018-Feb-17 13:30N 51°05' E 001°29'4 1.2
2018-Feb-17 10:37N 51°02' E 001°31'214.3
2018-Feb-17 10:30N 51°03' E 001°29'5 3.3
2018-Feb-17 08:54N 51°07' E 001°23'716.9
2018-Feb-17 08:30N 51°05' E 001°33'918.8
2018-Feb-17 08:00N 50°58' E 001°44'4 8.8
2018-Feb-17 07:30N 50°58' E 001°51'0 0.0
2018-Feb-17 07:00N 50°58' E 001°51'3 5.6
2018-Feb-17 06:30N 50°58' E 001°47'816.4
2018-Feb-17 06:00N 50°60' E 001°34'918.3
2018-Feb-17 05:30N 51°06' E 001°23'1 0.5
2018-Feb-17 03:45N 51°07' E 001°23'518.6
2018-Feb-17 03:30N 51°05' E 001°30'918.8
2018-Feb-17 03:00N 50°59' E 001°41'713.4
2018-Feb-17 02:30N 50°58' E 001°52'0 0.0
2018-Feb-17 02:00N 50°58' E 001°52'0 0.0
2018-Feb-17 01:30N 50°58' E 001°52'0 0.0
2018-Feb-17 01:00N 50°58' E 001°52'0 0.0
2018-Feb-17 00:30N 50°58' E 001°52'0 0.0
2018-Feb-17 00:00N 50°58' E 001°52'0 0.0
2018-Feb-16 23:30N 50°58' E 001°52'0 0.0
2018-Feb-16 23:00N 50°58' E 001°52'0 0.0
2018-Feb-16 22:30N 50°58' E 001°52'0 0.0
2018-Feb-16 21:57N 50°58' E 001°52'13 6.0
2018-Feb-16 19:44N 51°01' E 001°31'418.4
2018-Feb-16 19:30N 51°04' E 001°26'4 2.8
2018-Feb-16 18:09N 51°07' E 001°23'319.0
2018-Feb-16 18:00N 51°06' E 001°27'918.4
2018-Feb-16 17:30N 51°01' E 001°39'8 6.5
2018-Feb-16 16:16N 50°58' E 001°51'4 9.8
2018-Feb-16 15:52N 50°58' E 001°45'717.8
2018-Feb-16 15:29N 51°00' E 001°35'918.1
2018-Feb-16 14:59N 51°06' E 001°24'1 0.8
2018-Feb-16 13:41N 51°07' E 001°23'316.6
2018-Feb-16 13:30N 51°06' E 001°27'917.6
2018-Feb-16 13:00N 51°01' E 001°39'8 5.1
2018-Feb-16 11:23N 50°58' E 001°51'717.9
2018-Feb-16 11:00N 50°58' E 001°40'917.9
2018-Feb-16 10:31N 51°03' E 001°29'5 3.3
2018-Feb-16 08:57N 51°07' E 001°23'818.4
2018-Feb-16 08:30N 51°04' E 001°34'917.9
2018-Feb-16 08:00N 50°58' E 001°45'4 7.2
2018-Feb-16 07:30N 50°58' E 001°51'0 0.0
2018-Feb-16 07:00N 50°58' E 001°51'3 6.8
2018-Feb-16 06:31N 50°58' E 001°46'816.4
2018-Feb-16 06:00N 51°01' E 001°34'917.9
2018-Feb-16 05:30N 51°06' E 001°22'2 3.1
2018-Feb-16 04:59N 51°07' E 001°20'0 0.0
2018-Feb-16 04:29N 51°07' E 001°20'0 0.0
2018-Feb-16 03:56N 51°07' E 001°20'512.2
2018-Feb-16 03:30N 51°05' E 001°28'918.1
2018-Feb-16 03:00N 51°00' E 001°39'7 1.2
2018-Feb-15 20:59N 50°58' E 001°51'714.5
2018-Feb-15 20:28N 50°59' E 001°39'817.8
2018-Feb-15 20:00N 51°03' E 001°28'710.6
2018-Feb-15 19:23N 51°07' E 001°20'2 1.9
2018-Feb-15 18:28N 51°07' E 001°23'818.0
2018-Feb-15 18:00N 51°03' E 001°34'1117.3
2018-Feb-15 17:22N 50°58' E 001°50'1 1.0
2018-Feb-15 16:06N 50°58' E 001°48'216.1
2018-Feb-15 15:59N 50°58' E 001°45'1017.7
2018-Feb-15 15:24N 51°03' E 001°31'7 3.9
2018-Feb-15 13:41N 51°07' E 001°23'316.0
2018-Feb-15 13:30N 51°07' E 001°28'1316.9
2018-Feb-15 12:44N 50°59' E 001°44'412.0
2018-Feb-15 12:23N 50°58' E 001°51'0 0.1
2018-Feb-15 12:00N 50°58' E 001°51'0 0.0
2018-Feb-15 11:30N 50°58' E 001°51'1416.5
2018-Feb-15 10:37N 51°03' E 001°29'218.1
2018-Feb-15 10:30N 51°04' E 001°27'5 4.2
2018-Feb-15 09:16N 51°07' E 001°20'2 6.6
2018-Feb-15 08:57N 51°07' E 001°23'816.9
2018-Feb-15 08:31N 51°03' E 001°33'917.9
2018-Feb-15 08:00N 50°58' E 001°45'4 7.2
2018-Feb-15 07:30N 50°58' E 001°51'0 0.0
2018-Feb-15 07:00N 50°58' E 001°51'2 5.0
2018-Feb-15 06:30N 50°58' E 001°47'916.9
2018-Feb-15 06:00N 51°01' E 001°34'918.1
2018-Feb-15 05:31N 51°06' E 001°23'2 4.5
2018-Feb-15 05:00N 51°07' E 001°20'0 0.0
2018-Feb-15 04:30N 51°07' E 001°20'1 1.6
2018-Feb-15 04:00N 51°07' E 001°21'816.5
2018-Feb-15 03:31N 51°03' E 001°33'917.4
2018-Feb-15 03:01N 50°58' E 001°44'4 8.7
2018-Feb-15 02:30N 50°58' E 001°51'0 0.0
2018-Feb-15 02:00N 50°58' E 001°51'0 0.0
2018-Feb-15 01:30N 50°58' E 001°51'0 0.0
2018-Feb-15 01:00N 50°58' E 001°51'0 0.0
2018-Feb-15 00:30N 50°58' E 001°51'0 0.0
2018-Feb-15 00:00N 50°58' E 001°51'0 0.0
2018-Feb-14 23:30N 50°58' E 001°51'0 0.0
2018-Feb-14 23:00N 50°58' E 001°51'0 0.0
2018-Feb-14 22:30N 50°58' E 001°51'0 0.0
2018-Feb-14 22:00N 50°58' E 001°51'0 0.0
2018-Feb-14 21:30N 50°58' E 001°51'4 7.2
2018-Feb-14 21:00N 50°58' E 001°45'917.1
2018-Feb-14 20:30N 51°01' E 001°33'815.7
2018-Feb-14 20:01N 51°06' E 001°23'2 4.9
2018-Feb-14 19:30N 51°07' E 001°20'0 0.0
2018-Feb-14 19:00N 51°07' E 001°20'5 9.4
2018-Feb-14 18:31N 51°06' E 001°27'918.3
2018-Feb-14 18:00N 51°01' E 001°39'815.9
2018-Feb-14 17:31N 50°58' E 001°51'0 0.2
2018-Feb-14 17:00N 50°58' E 001°51'0 0.3
2018-Feb-14 16:30N 50°58' E 001°51'612.3
2018-Feb-14 16:00N 50°59' E 001°41'917.2
2018-Feb-14 15:30N 51°03' E 001°29'714.4
2018-Feb-14 15:00N 51°07' E 001°20'0 0.1
2018-Feb-14 14:01N 51°07' E 001°20'0 0.6
2018-Feb-14 14:00N 51°07' E 001°20'510.8
2018-Feb-14 13:31N 51°06' E 001°28'917.1
2018-Feb-14 13:01N 51°01' E 001°39'815.3
2018-Feb-14 12:30N 50°58' E 001°51'0 0.5
2018-Feb-14 12:00N 50°58' E 001°51'0 0.2
2018-Feb-14 11:30N 50°58' E 001°51'816.3
2018-Feb-14 11:00N 50°60' E 001°38'917.2
2018-Feb-14 10:31N 51°05' E 001°28'5 6.3
2018-Feb-14 09:41N 51°07' E 001°20'0 0.0
2018-Feb-14 09:28N 51°07' E 001°20'2 4.0
2018-Feb-14 09:00N 51°07' E 001°23'918.0
2018-Feb-14 08:30N 51°03' E 001°36'917.5
2018-Feb-14 08:00N 50°58' E 001°47'2 4.7
2018-Feb-14 07:31N 50°58' E 001°51'0 0.0
2018-Feb-14 07:01N 50°58' E 001°51'5 9.7
2018-Feb-14 06:30N 50°58' E 001°43'816.2
2018-Feb-14 06:01N 51°00' E 001°31'917.2
2018-Feb-14 05:30N 51°07' E 001°22'1 2.7
2018-Feb-14 05:00N 51°07' E 001°20'0 0.0
2018-Feb-14 04:30N 51°07' E 001°20'0 0.2
2018-Feb-14 03:58N 51°07' E 001°20'613.6
2018-Feb-14 03:31N 51°04' E 001°29'918.6
2018-Feb-14 03:00N 50°60' E 001°42'611.8
2018-Feb-14 02:30N 50°58' E 001°51'0 0.0
2018-Feb-14 02:01N 50°58' E 001°51'0 0.0
2018-Feb-14 01:30N 50°58' E 001°51'0 0.0
2018-Feb-14 01:00N 50°58' E 001°51'0 0.0
2018-Feb-14 00:31N 50°58' E 001°51'0 0.0
2018-Feb-14 00:00N 50°58' E 001°51'0 0.0
2018-Feb-13 23:30N 50°58' E 001°51'0 0.0
2018-Feb-13 23:00N 50°58' E 001°51'0 0.0
2018-Feb-13 22:30N 50°58' E 001°51'714.4
2018-Feb-13 22:00N 50°59' E 001°40'917.1
2018-Feb-13 21:30N 51°03' E 001°28'713.1
2018-Feb-13 21:00N 51°07' E 001°20'0 0.0
2018-Feb-13 20:25N 51°07' E 001°20'0 0.7
2018-Feb-13 20:00N 51°07' E 001°20'816.5
2018-Feb-13 19:31N 51°05' E 001°33'918.0
2018-Feb-13 19:00N 50°59' E 001°43'510.3
2018-Feb-13 18:30N 50°58' E 001°52'0 0.0
2018-Feb-13 18:00N 50°58' E 001°52'1 2.0
2018-Feb-13 17:30N 50°58' E 001°50'815.1
2018-Feb-13 17:01N 50°59' E 001°38'816.6
2018-Feb-13 16:30N 51°03' E 001°27'611.8
2018-Feb-13 16:00N 51°07' E 001°20'0 0.0
2018-Feb-13 15:30N 51°07' E 001°20'0 0.3
2018-Feb-13 15:00N 51°07' E 001°20'612.4
2018-Feb-13 14:31N 51°05' E 001°29'917.5
2018-Feb-13 14:00N 50°60' E 001°40'714.6
2018-Feb-13 13:30N 50°58' E 001°51'0 0.4
2018-Feb-13 12:59N 50°58' E 001°52'1 1.3
2018-Feb-13 12:30N 50°58' E 001°51'917.0
2018-Feb-13 12:00N 50°60' E 001°37'816.4
2018-Feb-13 11:30N 51°04' E 001°27'510.1
2018-Feb-13 11:00N 51°07' E 001°20'0 0.0
2018-Feb-13 10:30N 51°07' E 001°20'0 0.3
2018-Feb-13 09:57N 51°07' E 001°20'3 5.9
2018-Feb-13 09:30N 51°07' E 001°24'5 9.3
2018-Feb-13 09:00N 51°05' E 001°31'917.3
2018-Feb-13 08:30N 50°60' E 001°42'612.4
2018-Feb-13 08:00N 50°58' E 001°51'0 0.3
2018-Feb-13 07:30N 50°58' E 001°52'0 0.3
2018-Feb-13 07:01N 50°58' E 001°51'611.2
2018-Feb-13 06:31N 50°58' E 001°43'816.0
2018-Feb-13 06:00N 51°02' E 001°32'816.0
2018-Feb-13 05:31N 51°07' E 001°21'1 1.6
2018-Feb-13 05:00N 51°07' E 001°20'0 0.0
2018-Feb-13 04:30N 51°07' E 001°20'1 1.4
2018-Feb-13 04:00N 51°07' E 001°21'815.9
2018-Feb-13 03:30N 51°04' E 001°33'815.6
2018-Feb-13 03:00N 50°59' E 001°43'511.0
2018-Feb-13 02:30N 50°58' E 001°51'0 0.0
2018-Feb-13 02:00N 50°58' E 001°51'0 0.0
2018-Feb-13 01:30N 50°58' E 001°51'0 0.0
2018-Feb-13 01:00N 50°58' E 001°51'0 0.0
2018-Feb-13 00:31N 50°58' E 001°51'0 0.0
2018-Feb-13 00:00N 50°58' E 001°51'0 0.0
2018-Feb-12 23:31N 50°58' E 001°51'0 0.0
2018-Feb-12 23:00N 50°58' E 001°51'0 0.0
2018-Feb-12 22:30N 50°58' E 001°51'0 0.0
2018-Feb-12 22:00N 50°58' E 001°51'0 0.0
2018-Feb-12 21:30N 50°58' E 001°51'0 0.0
2018-Feb-12 21:00N 50°58' E 001°51'0 0.9
2018-Feb-12 20:30N 50°58' E 001°50'917.8
2018-Feb-12 20:00N 50°60' E 001°37'918.0
2018-Feb-12 19:31N 51°05' E 001°25'4 7.1
2018-Feb-12 18:58N 51°07' E 001°20'0 0.3
2018-Feb-12 18:30N 51°07' E 001°20'714.3
2018-Feb-12 18:00N 51°05' E 001°30'918.1
2018-Feb-12 17:30N 50°59' E 001°42'612.0
2018-Feb-12 17:00N 50°58' E 001°52'0 0.0
2018-Feb-12 16:30N 50°58' E 001°52'2 4.9
2018-Feb-12 16:00N 50°58' E 001°48'815.9
2018-Feb-12 15:30N 51°00' E 001°35'917.6
2018-Feb-12 15:01N 51°05' E 001°24'3 6.6
2018-Feb-12 14:30N 51°07' E 001°20'0 0.0
2018-Feb-12 13:59N 51°07' E 001°20'4 9.3
2018-Feb-12 13:30N 51°06' E 001°27'917.1
2018-Feb-12 13:01N 51°01' E 001°38'815.9
2018-Feb-12 12:31N 50°58' E 001°50'1 2.3
2018-Feb-12 12:01N 50°58' E 001°52'0 0.0
2018-Feb-12 11:30N 50°58' E 001°52'714.6
2018-Feb-12 11:01N 50°58' E 001°40'918.1
2018-Feb-12 10:30N 51°03' E 001°28'  
Track history (hours):
 
Tides and Currents Weather Stations Pressure Air Temp Water Temp Dewpoint Dewpoint Depression Visibility Wind Speed Wind Dir Waves Ship Positions

European Seaway

Operator: P & O Ferries

Last reported at 2018-Feb-22 10:28 UTC. Time now 2018-Feb-22 10:37 UTC.
Position N 51°05' E 001°25'.

Length 179 m; draft 6.1 m.

Type: Passenger vessel. MMSI: 232001040.

Date/timePositionNaut miles runAvg speedWind from/ knotsBaromVisibWave heightAir tempDewpointWater temp
2018-Feb-22 10:28N 51°05' E 001°25'2 1.2
2018-Feb-22 08:55N 51°07' E 001°25'717.8
2018-Feb-22 08:30N 51°04' E 001°36'3 1.2
2018-Feb-22 05:53N 51°02' E 001°31'7 3.3
2018-Feb-22 03:52N 51°07' E 001°24'718.2
2018-Feb-22 03:30N 51°03' E 001°32'3 0.3
2018-Feb-21 15:32N 51°05' E 001°27'217.7
2018-Feb-21 15:25N 51°06' E 001°24'1 0.2
2018-Feb-21 11:01N 51°06' E 001°23'11 0.7
2018-Feb-20 20:29N 50°59' E 001°37'917.6
2018-Feb-20 19:57N 51°05' E 001°25'6 2.8
2018-Feb-20 17:59N 51°03' E 001°33'6 2.2
2018-Feb-20 15:10N 51°06' E 001°24'2 1.9
2018-Feb-20 13:54N 51°07' E 001°22'717.1
2018-Feb-20 13:29N 51°04' E 001°32'14 8.1
2018-Feb-20 11:46N 50°58' E 001°52'1 2.1
2018-Feb-20 11:30N 50°58' E 001°51'916.0
2018-Feb-20 10:57N 50°60' E 001°37'818.1
2018-Feb-20 10:29N 51°05' E 001°27'3 2.0
2018-Feb-20 09:04N 51°07' E 001°23'117.7
2018-Feb-20 09:00N 51°06' E 001°25'11 4.0
2018-Feb-20 06:16N 50°59' E 001°38'518.2
2018-Feb-20 05:58N 51°02' E 001°31'7 3.3
2018-Feb-20 03:47N 51°07' E 001°23'517.3
2018-Feb-20 03:29N 51°05' E 001°31'15 3.1
2018-Feb-19 22:37N 50°58' E 001°52'0 0.0
2018-Feb-19 22:29N 50°58' E 001°52'7 3.3
2018-Feb-19 20:22N 50°58' E 001°41'617.2
2018-Feb-19 20:00N 51°02' E 001°32'9 6.2
2018-Feb-19 18:29N 51°07' E 001°20'816.8
2018-Feb-19 18:00N 51°05' E 001°32'2 0.9
2018-Feb-19 15:28N 51°03' E 001°30'6 4.2
2018-Feb-19 13:56N 51°07' E 001°23'716.4
2018-Feb-19 13:31N 51°05' E 001°34'8 3.5
2018-Feb-19 11:08N 50°58' E 001°42'817.1
2018-Feb-19 10:41N 51°02' E 001°31'316.9
2018-Feb-19 10:30N 51°04' E 001°27'4 2.6
2018-Feb-19 08:51N 51°07' E 001°23'719.0
2018-Feb-19 08:30N 51°03' E 001°32'919.0
2018-Feb-19 08:00N 50°58' E 001°45'4 8.0
2018-Feb-19 07:30N 50°58' E 001°51'0 0.0
2018-Feb-19 07:01N 50°58' E 001°51'0 0.0
2018-Feb-19 06:30N 50°58' E 001°51'6 0.6
2018-Feb-18 20:07N 50°58' E 001°41'216.2
2018-Feb-18 20:00N 50°59' E 001°38'917.6
2018-Feb-18 19:31N 51°04' E 001°27'4 2.7
2018-Feb-18 18:08N 51°07' E 001°23'218.0
2018-Feb-18 18:00N 51°06' E 001°26'1018.2
2018-Feb-18 17:26N 51°00' E 001°39'3 1.4
2018-Feb-18 15:28N 51°01' E 001°35'818.0
2018-Feb-18 15:00N 51°06' E 001°24'2 1.4
2018-Feb-18 13:45N 51°07' E 001°23'416.5
2018-Feb-18 13:29N 51°05' E 001°29'10 4.5
2018-Feb-18 11:10N 50°58' E 001°42'716.5
2018-Feb-18 10:43N 51°02' E 001°31'415.4
2018-Feb-18 10:29N 51°04' E 001°27'4 2.3
2018-Feb-18 08:54N 51°07' E 001°23'718.5
2018-Feb-18 08:30N 51°04' E 001°33'918.7
2018-Feb-18 08:00N 50°58' E 001°45'4 6.9
2018-Feb-18 07:29N 50°58' E 001°51'0 0.0
2018-Feb-18 07:00N 50°58' E 001°51'0 0.0
2018-Feb-18 06:30N 50°58' E 001°51'0 0.0
2018-Feb-18 06:01N 50°58' E 001°51'0 0.0
2018-Feb-18 05:30N 50°58' E 001°51'0 0.0
2018-Feb-18 05:00N 50°58' E 001°51'0 0.0
2018-Feb-18 04:30N 50°58' E 001°51'0 0.0
2018-Feb-18 04:00N 50°58' E 001°51'0 0.0
2018-Feb-18 03:30N 50°58' E 001°51'0 0.0
2018-Feb-18 03:00N 50°58' E 001°51'0 0.0
2018-Feb-18 02:30N 50°58' E 001°51'0 0.0
2018-Feb-18 02:00N 50°58' E 001°51'0 0.0
2018-Feb-18 01:30N 50°58' E 001°51'0 0.0
2018-Feb-18 00:59N 50°58' E 001°51'0 0.0
2018-Feb-18 00:30N 50°58' E 001°51'0 0.0
2018-Feb-18 00:00N 50°58' E 001°51'0 0.0
2018-Feb-17 23:30N 50°58' E 001°51'0 0.0
2018-Feb-17 23:00N 50°58' E 001°51'0 0.0
2018-Feb-17 22:31N 50°58' E 001°51'0 0.0
2018-Feb-17 21:52N 50°58' E 001°51'0 0.0
2018-Feb-17 21:25N 50°58' E 001°51'1 0.7
2018-Feb-17 20:30N 50°58' E 001°50'815.8
2018-Feb-17 19:59N 50°60' E 001°37'917.5
2018-Feb-17 19:29N 51°05' E 001°26'4 8.9
2018-Feb-17 18:59N 51°07' E 001°20'2 2.4
2018-Feb-17 18:16N 51°07' E 001°23'518.0
2018-Feb-17 18:00N 51°06' E 001°30'1517.7
2018-Feb-17 17:11N 50°58' E 001°49'0 0.2
2018-Feb-17 16:02N 50°58' E 001°50'516.7
2018-Feb-17 15:45N 50°59' E 001°42'818.9
2018-Feb-17 15:19N 51°03' E 001°31'619.2
2018-Feb-17 15:00N 51°06' E 001°23'1 0.4
2018-Feb-17 13:44N 51°07' E 001°23'416.4
2018-Feb-17 13:30N 51°05' E 001°29'4 1.2
2018-Feb-17 10:37N 51°02' E 001°31'214.3
2018-Feb-17 10:30N 51°03' E 001°29'5 3.3
2018-Feb-17 08:54N 51°07' E 001°23'716.9
2018-Feb-17 08:30N 51°05' E 001°33'918.8
2018-Feb-17 08:00N 50°58' E 001°44'4 8.8
2018-Feb-17 07:30N 50°58' E 001°51'0 0.0
2018-Feb-17 07:00N 50°58' E 001°51'3 5.6
2018-Feb-17 06:30N 50°58' E 001°47'816.4
2018-Feb-17 06:00N 50°60' E 001°34'918.3
2018-Feb-17 05:30N 51°06' E 001°23'1 0.5
2018-Feb-17 03:45N 51°07' E 001°23'518.6
2018-Feb-17 03:30N 51°05' E 001°30'918.8
2018-Feb-17 03:00N 50°59' E 001°41'713.4
2018-Feb-17 02:30N 50°58' E 001°52'0 0.0
2018-Feb-17 02:00N 50°58' E 001°52'0 0.0
2018-Feb-17 01:30N 50°58' E 001°52'0 0.0
2018-Feb-17 01:00N 50°58' E 001°52'0 0.0
2018-Feb-17 00:30N 50°58' E 001°52'0 0.0
2018-Feb-17 00:00N 50°58' E 001°52'0 0.0
2018-Feb-16 23:30N 50°58' E 001°52'0 0.0
2018-Feb-16 23:00N 50°58' E 001°52'0 0.0
2018-Feb-16 22:30N 50°58' E 001°52'0 0.0
2018-Feb-16 21:57N 50°58' E 001°52'13 6.0
2018-Feb-16 19:44N 51°01' E 001°31'418.4
2018-Feb-16 19:30N 51°04' E 001°26'4 2.8
2018-Feb-16 18:09N 51°07' E 001°23'319.0
2018-Feb-16 18:00N 51°06' E 001°27'918.4
2018-Feb-16 17:30N 51°01' E 001°39'8 6.5
2018-Feb-16 16:16N 50°58' E 001°51'4 9.8
2018-Feb-16 15:52N 50°58' E 001°45'717.8
2018-Feb-16 15:29N 51°00' E 001°35'918.1
2018-Feb-16 14:59N 51°06' E 001°24'1 0.8
2018-Feb-16 13:41N 51°07' E 001°23'316.6
2018-Feb-16 13:30N 51°06' E 001°27'917.6
2018-Feb-16 13:00N 51°01' E 001°39'8 5.1
2018-Feb-16 11:23N 50°58' E 001°51'717.9
2018-Feb-16 11:00N 50°58' E 001°40'917.9
2018-Feb-16 10:31N 51°03' E 001°29'5 3.3
2018-Feb-16 08:57N 51°07' E 001°23'818.4
2018-Feb-16 08:30N 51°04' E 001°34'917.9
2018-Feb-16 08:00N 50°58' E 001°45'4 7.2
2018-Feb-16 07:30N 50°58' E 001°51'0 0.0
2018-Feb-16 07:00N 50°58' E 001°51'3 6.8
2018-Feb-16 06:31N 50°58' E 001°46'816.4
2018-Feb-16 06:00N 51°01' E 001°34'917.9
2018-Feb-16 05:30N 51°06' E 001°22'2 3.1
2018-Feb-16 04:59N 51°07' E 001°20'0 0.0
2018-Feb-16 04:29N 51°07' E 001°20'0 0.0
2018-Feb-16 03:56N 51°07' E 001°20'512.2
2018-Feb-16 03:30N 51°05' E 001°28'918.1
2018-Feb-16 03:00N 51°00' E 001°39'7 1.2
2018-Feb-15 20:59N 50°58' E 001°51'714.5
2018-Feb-15 20:28N 50°59' E 001°39'817.8
2018-Feb-15 20:00N 51°03' E 001°28'710.6
2018-Feb-15 19:23N 51°07' E 001°20'2 1.9
2018-Feb-15 18:28N 51°07' E 001°23'818.0
2018-Feb-15 18:00N 51°03' E 001°34'1117.3
2018-Feb-15 17:22N 50°58' E 001°50'1 1.0
2018-Feb-15 16:06N 50°58' E 001°48'216.1
2018-Feb-15 15:59N 50°58' E 001°45'1017.7
2018-Feb-15 15:24N 51°03' E 001°31'7 3.9
2018-Feb-15 13:41N 51°07' E 001°23'316.0
2018-Feb-15 13:30N 51°07' E 001°28'1316.9
2018-Feb-15 12:44N 50°59' E 001°44'412.0
2018-Feb-15 12:23N 50°58' E 001°51'0 0.1
2018-Feb-15 12:00N 50°58' E 001°51'0 0.0
2018-Feb-15 11:30N 50°58' E 001°51'1416.5
2018-Feb-15 10:37N 51°03' E 001°29'218.1
2018-Feb-15 10:30N 51°04' E 001°27'5 4.2
2018-Feb-15 09:16N 51°07' E 001°20'2 6.6
2018-Feb-15 08:57N 51°07' E 001°23'816.9
2018-Feb-15 08:31N 51°03' E 001°33'917.9
2018-Feb-15 08:00N 50°58' E 001°45'4 7.2
2018-Feb-15 07:30N 50°58' E 001°51'0 0.0
2018-Feb-15 07:00N 50°58' E 001°51'2 5.0
2018-Feb-15 06:30N 50°58' E 001°47'916.9
2018-Feb-15 06:00N 51°01' E 001°34'918.1
2018-Feb-15 05:31N 51°06' E 001°23'2 4.5
2018-Feb-15 05:00N 51°07' E 001°20'0 0.0
2018-Feb-15 04:30N 51°07' E 001°20'1 1.6
2018-Feb-15 04:00N 51°07' E 001°21'816.5
2018-Feb-15 03:31N 51°03' E 001°33'917.4
2018-Feb-15 03:01N 50°58' E 001°44'4 8.7
2018-Feb-15 02:30N 50°58' E 001°51'0 0.0
2018-Feb-15 02:00N 50°58' E 001°51'0 0.0
2018-Feb-15 01:30N 50°58' E 001°51'0 0.0
2018-Feb-15 01:00N 50°58' E 001°51'0 0.0
2018-Feb-15 00:30N 50°58' E 001°51'0 0.0
2018-Feb-15 00:00N 50°58' E 001°51'0 0.0
2018-Feb-14 23:30N 50°58' E 001°51'0 0.0
2018-Feb-14 23:00N 50°58' E 001°51'0 0.0
2018-Feb-14 22:30N 50°58' E 001°51'0 0.0
2018-Feb-14 22:00N 50°58' E 001°51'0 0.0
2018-Feb-14 21:30N 50°58' E 001°51'4 7.2
2018-Feb-14 21:00N 50°58' E 001°45'917.1
2018-Feb-14 20:30N 51°01' E 001°33'815.7
2018-Feb-14 20:01N 51°06' E 001°23'2 4.9
2018-Feb-14 19:30N 51°07' E 001°20'0 0.0
2018-Feb-14 19:00N 51°07' E 001°20'5 9.4
2018-Feb-14 18:31N 51°06' E 001°27'918.3
2018-Feb-14 18:00N 51°01' E 001°39'815.9
2018-Feb-14 17:31N 50°58' E 001°51'0 0.2
2018-Feb-14 17:00N 50°58' E 001°51'0 0.3
2018-Feb-14 16:30N 50°58' E 001°51'612.3
2018-Feb-14 16:00N 50°59' E 001°41'917.2
2018-Feb-14 15:30N 51°03' E 001°29'714.4
2018-Feb-14 15:00N 51°07' E 001°20'0 0.1
2018-Feb-14 14:01N 51°07' E 001°20'0 0.6
2018-Feb-14 14:00N 51°07' E 001°20'510.8
2018-Feb-14 13:31N 51°06' E 001°28'917.1
2018-Feb-14 13:01N 51°01' E 001°39'815.3
2018-Feb-14 12:30N 50°58' E 001°51'0 0.5
2018-Feb-14 12:00N 50°58' E 001°51'0 0.2
2018-Feb-14 11:30N 50°58' E 001°51'816.3
2018-Feb-14 11:00N 50°60' E 001°38'917.2
2018-Feb-14 10:31N 51°05' E 001°28'5 6.3
2018-Feb-14 09:41N 51°07' E 001°20'0 0.0
2018-Feb-14 09:28N 51°07' E 001°20'2 4.0
2018-Feb-14 09:00N 51°07' E 001°23'918.0
2018-Feb-14 08:30N 51°03' E 001°36'917.5
2018-Feb-14 08:00N 50°58' E 001°47'2 4.7
2018-Feb-14 07:31N 50°58' E 001°51'0 0.0
2018-Feb-14 07:01N 50°58' E 001°51'5 9.7
2018-Feb-14 06:30N 50°58' E 001°43'816.2
2018-Feb-14 06:01N 51°00' E 001°31'917.2
2018-Feb-14 05:30N 51°07' E 001°22'1 2.7
2018-Feb-14 05:00N 51°07' E 001°20'0 0.0
2018-Feb-14 04:30N 51°07' E 001°20'0 0.2
2018-Feb-14 03:58N 51°07' E 001°20'613.6
2018-Feb-14 03:31N 51°04' E 001°29'918.6
2018-Feb-14 03:00N 50°60' E 001°42'611.8
2018-Feb-14 02:30N 50°58' E 001°51'0 0.0
2018-Feb-14 02:01N 50°58' E 001°51'0 0.0
2018-Feb-14 01:30N 50°58' E 001°51'0 0.0
2018-Feb-14 01:00N 50°58' E 001°51'0 0.0
2018-Feb-14 00:31N 50°58' E 001°51'0 0.0
2018-Feb-14 00:00N 50°58' E 001°51'0 0.0
2018-Feb-13 23:30N 50°58' E 001°51'0 0.0
2018-Feb-13 23:00N 50°58' E 001°51'0 0.0
2018-Feb-13 22:30N 50°58' E 001°51'714.4
2018-Feb-13 22:00N 50°59' E 001°40'917.1
2018-Feb-13 21:30N 51°03' E 001°28'713.1
2018-Feb-13 21:00N 51°07' E 001°20'0 0.0
2018-Feb-13 20:25N 51°07' E 001°20'0 0.7
2018-Feb-13 20:00N 51°07' E 001°20'816.5
2018-Feb-13 19:31N 51°05' E 001°33'918.0
2018-Feb-13 19:00N 50°59' E 001°43'510.3
2018-Feb-13 18:30N 50°58' E 001°52'0 0.0
2018-Feb-13 18:00N 50°58' E 001°52'1 2.0
2018-Feb-13 17:30N 50°58' E 001°50'815.1
2018-Feb-13 17:01N 50°59' E 001°38'816.6
2018-Feb-13 16:30N 51°03' E 001°27'611.8
2018-Feb-13 16:00N 51°07' E 001°20'0 0.0
2018-Feb-13 15:30N 51°07' E 001°20'0 0.3
2018-Feb-13 15:00N 51°07' E 001°20'612.4
2018-Feb-13 14:31N 51°05' E 001°29'917.5
2018-Feb-13 14:00N 50°60' E 001°40'714.6
2018-Feb-13 13:30N 50°58' E 001°51'0 0.4
2018-Feb-13 12:59N 50°58' E 001°52'1 1.3
2018-Feb-13 12:30N 50°58' E 001°51'917.0
2018-Feb-13 12:00N 50°60' E 001°37'816.4
2018-Feb-13 11:30N 51°04' E 001°27'510.1
2018-Feb-13 11:00N 51°07' E 001°20'0 0.0
2018-Feb-13 10:30N 51°07' E 001°20'0 0.3
2018-Feb-13 09:57N 51°07' E 001°20'3 5.9
2018-Feb-13 09:30N 51°07' E 001°24'5 9.3
2018-Feb-13 09:00N 51°05' E 001°31'917.3
2018-Feb-13 08:30N 50°60' E 001°42'612.4
2018-Feb-13 08:00N 50°58' E 001°51'0 0.3
2018-Feb-13 07:30N 50°58' E 001°52'0 0.3
2018-Feb-13 07:01N 50°58' E 001°51'611.2
2018-Feb-13 06:31N 50°58' E 001°43'816.0
2018-Feb-13 06:00N 51°02' E 001°32'816.0
2018-Feb-13 05:31N 51°07' E 001°21'1 1.6
2018-Feb-13 05:00N 51°07' E 001°20'0 0.0
2018-Feb-13 04:30N 51°07' E 001°20'1 1.4
2018-Feb-13 04:00N 51°07' E 001°21'815.9
2018-Feb-13 03:30N 51°04' E 001°33'815.6
2018-Feb-13 03:00N 50°59' E 001°43'511.0
2018-Feb-13 02:30N 50°58' E 001°51'0 0.0
2018-Feb-13 02:00N 50°58' E 001°51'0 0.0
2018-Feb-13 01:30N 50°58' E 001°51'0 0.0
2018-Feb-13 01:00N 50°58' E 001°51'0 0.0
2018-Feb-13 00:31N 50°58' E 001°51'0 0.0
2018-Feb-13 00:00N 50°58' E 001°51'0 0.0
2018-Feb-12 23:31N 50°58' E 001°51'0 0.0
2018-Feb-12 23:00N 50°58' E 001°51'0 0.0
2018-Feb-12 22:30N 50°58' E 001°51'0 0.0
2018-Feb-12 22:00N 50°58' E 001°51'0 0.0
2018-Feb-12 21:30N 50°58' E 001°51'0 0.0
2018-Feb-12 21:00N 50°58' E 001°51'0 0.9
2018-Feb-12 20:30N 50°58' E 001°50'917.8
2018-Feb-12 20:00N 50°60' E 001°37'918.0
2018-Feb-12 19:31N 51°05' E 001°25'4 7.1
2018-Feb-12 18:58N 51°07' E 001°20'0 0.3
2018-Feb-12 18:30N 51°07' E 001°20'714.3
2018-Feb-12 18:00N 51°05' E 001°30'918.1
2018-Feb-12 17:30N 50°59' E 001°42'612.0
2018-Feb-12 17:00N 50°58' E 001°52'0 0.0
2018-Feb-12 16:30N 50°58' E 001°52'2 4.9
2018-Feb-12 16:00N 50°58' E 001°48'815.9
2018-Feb-12 15:30N 51°00' E 001°35'917.6
2018-Feb-12 15:01N 51°05' E 001°24'3 6.6
2018-Feb-12 14:30N 51°07' E 001°20'0 0.0
2018-Feb-12 13:59N 51°07' E 001°20'4 9.3
2018-Feb-12 13:30N 51°06' E 001°27'917.1
2018-Feb-12 13:01N 51°01' E 001°38'815.9
2018-Feb-12 12:31N 50°58' E 001°50'1 2.3
2018-Feb-12 12:01N 50°58' E 001°52'0 0.0
2018-Feb-12 11:30N 50°58' E 001°52'714.6
2018-Feb-12 11:01N 50°58' E 001°40'918.1
2018-Feb-12 10:30N 51°03' E 001°28'  

Dump ship's entire track history